Time;durP1;ratioP1;P1;durP2;ratioP2;P2;SDS_P1;SDS_P2;PMS_P1;PMS_P2;Temp;Humidity;BMP_temperature;BMP_pressure;BME280_temperature;BME280_humidity;BME280_pressure;Samples;Min_cycle;Max_cycle;Signal;HPM_P1;HPM_P2
2023/05/31 00:01:15;;;;;;;10.38;4.45;;;;;;;15.96;90.21;94672.72;5109381;28;20241;-74
2023/05/31 00:03:43;;;;;;;8.38;4.40;;;;;;;15.95;90.45;94675.78;5099395;27;20869;-74
2023/05/31 00:06:10;;;;;;;7.88;4.80;;;;;;;15.95;90.24;94678.53;5107303;28;20233;-74
2023/05/31 00:08:37;;;;;;;8.82;5.18;;;;;;;15.92;89.98;94679.25;5103004;28;20204;-74
2023/05/31 00:11:04;;;;;;;8.50;4.35;;;;;;;15.88;90.53;94672.91;5108246;28;20233;-74
2023/05/31 00:13:32;;;;;;;5.43;3.63;;;;;;;15.85;90.30;94673.66;5112002;28;20221;-75
2023/05/31 00:15:59;;;;;;;6.18;3.78;;;;;;;15.83;90.42;94673.22;5109309;28;20209;-74
2023/05/31 00:18:26;;;;;;;5.88;4.18;;;;;;;15.71;90.82;94673.34;5109508;28;20219;-74
2023/05/31 00:20:53;;;;;;;5.65;3.80;;;;;;;15.81;90.30;94673.56;5100732;28;20198;-75
2023/05/31 00:23:19;;;;;;;5.90;3.78;;;;;;;15.85;90.08;94677.16;5097643;28;20809;-74
2023/05/31 00:25:46;;;;;;;8.90;3.72;;;;;;;15.76;90.91;94673.06;5103864;28;20212;-74
2023/05/31 00:28:14;;;;;;;5.93;3.75;;;;;;;15.78;91.02;94670.75;5103488;28;20209;-74
2023/05/31 00:30:42;;;;;;;4.15;3.55;;;;;;;15.74;90.91;94678.06;5103321;28;20219;-74
2023/05/31 00:33:09;;;;;;;4.95;4.00;;;;;;;15.83;90.42;94673.22;5102568;28;20233;-74
2023/05/31 00:35:36;;;;;;;7.30;3.95;;;;;;;15.80;90.52;94665.72;5106733;28;20480;-75
2023/05/31 00:38:06;;;;;;;5.75;4.10;;;;;;;15.83;91.07;94675.94;5109379;27;20212;-74
2023/05/31 00:40:33;;;;;;;5.10;3.63;;;;;;;15.91;90.32;94683.13;5110606;28;20694;-74
2023/05/31 00:43:00;;;;;;;5.15;3.72;;;;;;;15.93;90.49;94670.69;5099190;28;20202;-74
2023/05/31 00:45:28;;;;;;;6.95;4.20;;;;;;;16.07;90.18;94681.09;5100202;28;20194;-74
2023/05/31 00:47:57;;;;;;;6.50;4.70;;;;;;;16.05;90.21;94683.41;5108458;28;20204;-74
2023/05/31 00:50:24;;;;;;;5.82;4.00;;;;;;;16.06;90.10;94681.47;5125999;27;20201;-74
2023/05/31 00:52:54;;;;;;;5.75;4.38;;;;;;;16.06;90.48;94684.19;5113452;27;20225;-74
2023/05/31 00:55:21;;;;;;;6.75;4.13;;;;;;;16.10;90.12;94674.94;5101815;28;20218;-74
2023/05/31 00:57:48;;;;;;;7.00;4.03;;;;;;;16.05;90.30;94677.94;5111824;28;20201;-74
2023/05/31 01:00:16;;;;;;;4.75;3.38;;;;;;;15.98;90.57;94680.53;5095968;28;20201;-74
2023/05/31 01:02:43;;;;;;;5.20;3.83;;;;;;;15.68;92.01;94679.53;5108150;28;20209;-73
2023/05/31 01:05:11;;;;;;;5.97;4.03;;;;;;;15.69;92.62;94681.91;5112422;28;20229;-74
2023/05/31 01:07:38;;;;;;;6.25;4.45;;;;;;;15.69;93.08;94681.13;5106462;28;20202;-74
2023/05/31 01:10:07;;;;;;;7.95;3.88;;;;;;;15.82;92.65;94685.28;5097151;28;20378;-74
2023/05/31 01:12:53;;;;;;;7.43;3.92;;;;;;;15.76;92.49;94682.03;5105500;28;20233;-74
2023/05/31 01:15:23;;;;;;;4.40;3.80;;;;;;;15.74;92.02;94680.81;5105653;28;20226;-74
2023/05/31 01:17:59;;;;;;;7.43;4.70;;;;;;;15.72;92.81;94686.63;5095881;28;20203;-74
2023/05/31 01:20:32;;;;;;;5.07;4.32;;;;;;;15.90;92.11;94681.53;5104514;28;20554;-74
2023/05/31 01:23:12;;;;;;;4.78;3.65;;;;;;;15.98;91.82;94686.00;5110675;28;20201;-74
2023/05/31 01:26:12;;;;;;;7.13;4.63;;;;;;;15.97;91.79;94687.16;5095619;28;20308;-74
2023/05/31 01:28:42;;;;;;;7.55;3.72;;;;;;;16.04;91.75;94673.63;5086416;28;20248;-74
2023/05/31 01:31:13;;;;;;;4.82;3.92;;;;;;;16.02;91.94;94684.13;5111817;28;20205;-74
2023/05/31 01:33:40;;;;;;;7.32;3.53;;;;;;;15.97;92.52;94681.69;5105822;28;20256;-74
2023/05/31 01:36:07;;;;;;;5.03;3.90;;;;;;;15.95;92.58;94684.78;5098902;28;20194;-74
2023/05/31 01:38:34;;;;;;;7.45;3.83;;;;;;;16.02;92.43;94684.13;5117074;27;20196;-74
2023/05/31 01:41:06;;;;;;;4.65;3.63;;;;;;;16.01;92.34;94682.53;5112657;27;20296;-74
2023/05/31 01:43:34;;;;;;;4.80;3.60;;;;;;;16.01;92.34;94688.00;5095884;28;20198;-74
2023/05/31 01:46:04;;;;;;;7.13;3.53;;;;;;;15.99;92.22;94682.09;5103357;28;20208;-74
2023/05/31 01:48:32;;;;;;;5.60;3.80;;;;;;;15.82;92.99;94685.28;5109336;28;20205;-74
2023/05/31 01:51:00;;;;;;;5.47;3.72;;;;;;;15.92;92.64;94679.25;5097708;28;20221;-74
2023/05/31 01:53:26;;;;;;;8.38;3.88;;;;;;;15.89;92.85;94685.41;5098177;28;20229;-74
2023/05/31 01:55:54;;;;;;;6.10;3.50;;;;;;;15.89;92.71;94674.50;5112059;27;20216;-74
2023/05/31 01:58:22;;;;;;;4.50;3.70;;;;;;;15.98;92.58;94677.81;5116626;27;20296;-74
2023/05/31 02:00:50;;;;;;;4.97;3.70;;;;;;;16.03;92.27;94680.25;5100210;28;20214;-75
2023/05/31 02:03:18;;;;;;;5.95;3.75;;;;;;;16.12;91.63;94678.09;5113765;27;20190;-74
2023/05/31 02:05:55;;;;;;;7.47;5.22;;;;;;;15.99;92.17;94687.56;5110689;28;20262;-74
2023/05/31 02:08:23;;;;;;;4.50;3.45;;;;;;;16.18;90.55;94693.03;5100262;28;20198;-74
2023/05/31 02:10:50;;;;;;;5.40;3.33;;;;;;;16.13;90.40;94676.91;5103127;28;20222;-74
2023/05/31 02:13:17;;;;;;;7.53;4.70;;;;;;;16.14;90.73;94686.69;5118156;27;20220;-74
2023/05/31 02:15:43;;;;;;;6.30;3.95;;;;;;;16.14;90.88;94697.63;5104446;28;20278;-74
2023/05/31 02:18:10;;;;;;;5.80;3.50;;;;;;;16.08;91.26;94693.63;5095910;28;20202;-74
2023/05/31 02:20:38;;;;;;;6.97;3.60;;;;;;;16.08;91.20;94693.63;5104633;28;20213;-75
2023/05/31 02:23:05;;;;;;;6.05;3.35;;;;;;;16.11;90.56;94692.91;5105482;28;20217;-74
2023/05/31 02:25:32;;;;;;;5.05;3.88;;;;;;;16.15;90.00;94687.50;5093737;28;20195;-74
2023/05/31 02:27:59;;;;;;;5.50;3.60;;;;;;;16.22;90.38;94684.91;5099295;28;20204;-74
2023/05/31 02:30:28;;;;;;;5.13;4.47;;;;;;;16.24;90.71;94680.66;5107095;28;20202;-74
2023/05/31 02:32:55;;;;;;;8.52;4.20;;;;;;;16.20;90.98;94679.00;5109639;28;20202;-74
2023/05/31 02:35:22;;;;;;;6.57;3.65;;;;;;;16.21;90.83;94681.38;5096426;28;20194;-74
2023/05/31 02:37:50;;;;;;;5.25;3.75;;;;;;;16.15;91.39;94693.75;5102793;28;20281;-74
2023/05/31 02:40:17;;;;;;;5.68;3.47;;;;;;;16.21;90.97;94686.84;5106720;28;20202;-74
2023/05/31 02:42:44;;;;;;;5.40;4.20;;;;;;;16.25;90.68;94687.72;5105620;27;20223;-75
2023/05/31 02:45:12;;;;;;;5.75;3.25;;;;;;;16.31;90.83;94686.25;5105560;28;20198;-74
2023/05/31 02:47:39;;;;;;;5.18;3.17;;;;;;;16.32;91.43;94682.38;5106560;28;20205;-75
2023/05/31 02:50:07;;;;;;;7.30;5.18;;;;;;;16.21;91.65;94686.84;5101885;28;20213;-75
2023/05/31 02:52:34;;;;;;;7.75;4.43;;;;;;;16.20;91.53;94684.47;5105786;28;20223;-75
2023/05/31 02:55:02;;;;;;;7.05;3.78;;;;;;;16.16;91.66;94687.13;5103648;28;20241;-75
2023/05/31 02:57:29;;;;;;;7.20;3.90;;;;;;;15.97;91.65;94685.22;5101874;28;20644;-75
2023/05/31 02:59:58;;;;;;;5.50;4.60;;;;;;;16.03;91.83;94691.16;5104860;28;20256;-75
2023/05/31 03:02:25;;;;;;;6.70;4.13;;;;;;;16.07;91.79;94692.03;5106496;28;20205;-74
2023/05/31 03:04:52;;;;;;;5.68;3.75;;;;;;;16.00;91.76;94692.69;5103823;28;20652;-75
2023/05/31 03:07:19;;;;;;;6.45;4.53;;;;;;;16.03;91.93;94696.63;5106512;28;20209;-73
2023/05/31 03:09:46;;;;;;;7.00;4.00;;;;;;;16.32;91.66;94687.84;5103353;28;20195;-75
2023/05/31 03:12:14;;;;;;;6.30;4.38;;;;;;;16.50;91.05;94690.09;5107833;28;20229;-75
2023/05/31 03:14:41;;;;;;;7.93;4.90;;;;;;;16.50;90.34;94687.38;5101464;28;20688;-75
2023/05/31 03:17:09;;;;;;;10.25;4.57;;;;;;;16.46;90.03;94689.25;5102441;28;20532;-74
2023/05/31 03:19:35;;;;;;;6.50;4.50;;;;;;;16.47;90.56;94690.84;5104119;28;20637;-74
2023/05/31 03:22:02;;;;;;;6.68;3.60;;;;;;;16.53;90.42;94692.13;5106664;28;20232;-74
2023/05/31 03:24:30;;;;;;;5.72;3.80;;;;;;;16.38;90.92;94695.75;5100594;28;20200;-74
2023/05/31 03:26:56;;;;;;;5.55;4.00;;;;;;;16.07;92.58;94697.50;5105827;28;20205;-74
2023/05/31 03:29:25;;;;;;;5.93;3.80;;;;;;;15.81;94.46;94700.09;5104460;28;20194;-74
2023/05/31 03:31:51;;;;;;;5.97;5.07;;;;;;;15.64;95.97;94704.81;5105326;28;20205;-74
2023/05/31 03:34:18;;;;;;;7.03;4.75;;;;;;;15.50;97.73;94707.22;5099014;28;20230;-75
2023/05/31 03:36:45;;;;;;;11.68;5.80;;;;;;;15.47;98.12;94707.13;5102485;28;20205;-74
2023/05/31 03:39:12;;;;;;;10.77;6.10;;;;;;;15.44;98.59;94708.66;5103888;28;20210;-74
2023/05/31 03:41:39;;;;;;;9.60;5.95;;;;;;;15.41;98.99;94712.09;5105944;28;20202;-74
2023/05/31 03:44:05;;;;;;;8.35;6.35;;;;;;;15.37;99.25;94711.19;5111416;27;20201;-75
2023/05/31 03:46:34;;;;;;;11.80;6.40;;;;;;;15.39;99.44;94714.38;5122082;27;20223;-74
2023/05/31 03:49:01;;;;;;;10.85;7.05;;;;;;;15.60;98.80;94716.81;5109751;28;20205;-75
2023/05/31 03:51:27;;;;;;;11.88;6.50;;;;;;;15.67;97.88;94716.19;5110014;28;20205;-74
2023/05/31 03:53:54;;;;;;;10.30;6.28;;;;;;;15.87;96.92;94712.31;5102556;28;20226;-75
2023/05/31 03:56:21;;;;;;;10.82;6.40;;;;;;;16.10;95.61;94718.66;5106951;28;20217;-74
2023/05/31 03:58:49;;;;;;;13.45;6.78;;;;;;;16.19;94.91;94719.22;5103045;28;20604;-74
2023/05/31 04:01:17;;;;;;;9.40;5.95;;;;;;;16.27;94.18;94723.66;5092296;28;20206;-75
2023/05/31 04:03:45;;;;;;;11.23;6.35;;;;;;;16.50;93.85;94720.19;5098758;28;20225;-74
2023/05/31 04:06:12;;;;;;;8.15;5.47;;;;;;;16.39;93.22;94719.22;5098921;28;20194;-74
2023/05/31 04:08:39;;;;;;;8.50;5.80;;;;;;;16.46;92.51;94722.06;5106044;28;20209;-74
2023/05/31 04:11:05;;;;;;;11.45;4.93;;;;;;;16.49;90.73;94724.06;5097003;28;20237;-73
2023/05/31 04:13:32;;;;;;;7.43;5.25;;;;;;;16.51;90.77;94725.31;5101005;28;20684;-73
2023/05/31 04:15:59;;;;;;;9.48;4.90;;;;;;;16.52;91.17;94728.84;5108826;28;20202;-76
2023/05/31 04:18:26;;;;;;;9.93;4.90;;;;;;;16.59;90.60;94729.75;5098217;28;20565;-74
2023/05/31 04:20:54;;;;;;;8.52;5.03;;;;;;;16.50;90.50;94725.66;5099173;28;20289;-74
2023/05/31 04:23:21;;;;;;;8.85;5.50;;;;;;;16.64;89.43;94725.97;5105318;28;20202;-75
2023/05/31 04:25:47;;;;;;;7.68;5.03;;;;;;;16.74;89.42;94730.81;5099648;28;20206;-74
2023/05/31 04:28:15;;;;;;;9.80;5.07;;;;;;;16.82;89.44;94729.78;5102418;28;20416;-74
2023/05/31 04:30:44;;;;;;;8.25;5.55;;;;;;;16.91;88.72;94730.34;5108960;28;20268;-74
2023/05/31 04:33:10;;;;;;;15.05;4.70;;;;;;;16.98;88.05;94733.19;5109138;28;20284;-73
2023/05/31 04:35:38;;;;;;;9.55;4.85;;;;;;;17.11;87.62;94743.94;5100902;28;20232;-74
2023/05/31 04:38:08;;;;;;;8.63;4.95;;;;;;;17.28;87.71;94746.19;5108633;28;20209;-73
2023/05/31 04:40:34;;;;;;;8.57;5.88;;;;;;;17.43;86.30;94739.78;5108722;28;20618;-74
2023/05/31 04:43:01;;;;;;;7.93;5.40;;;;;;;17.29;86.42;94747.78;5108200;28;20201;-74
2023/05/31 04:45:28;;;;;;;10.20;5.35;;;;;;;17.69;85.76;94742.53;5108454;28;20281;-74
2023/05/31 04:47:55;;;;;;;6.82;4.88;;;;;;;17.96;84.45;94740.56;5109508;28;20600;-74
2023/05/31 04:50:22;;;;;;;10.98;6.13;;;;;;;18.30;83.13;94744.13;5108916;28;20320;-74
2023/05/31 04:52:51;;;;;;;9.10;5.97;;;;;;;18.38;82.39;94745.78;5122907;28;20484;-74
2023/05/31 04:55:19;;;;;;;14.13;6.05;;;;;;;18.58;80.53;94740.97;5109055;28;20238;-73
2023/05/31 04:57:46;;;;;;;10.98;5.80;;;;;;;18.90;79.16;94749.50;5109142;28;20205;-73
2023/05/31 05:00:16;;;;;;;9.50;6.55;;;;;;;18.45;79.90;94750.56;5103960;28;20205;-73
2023/05/31 05:02:43;;;;;;;8.25;5.57;;;;;;;18.72;79.99;94751.31;5108715;28;20205;-73
2023/05/31 05:05:10;;;;;;;13.60;5.80;;;;;;;18.77;79.11;94756.44;5108670;28;20210;-74
2023/05/31 05:07:37;;;;;;;11.18;6.70;;;;;;;18.52;79.58;94755.34;5121110;28;20267;-74
2023/05/31 05:10:04;;;;;;;11.73;6.57;;;;;;;18.90;78.91;94763.22;5108068;28;20205;-74
2023/05/31 05:12:32;;;;;;;8.35;5.70;;;;;;;18.93;78.80;94764.44;5108770;28;20573;-73
2023/05/31 05:14:59;;;;;;;7.53;5.40;;;;;;;19.01;78.47;94766.88;5108788;28;20226;-72
2023/05/31 05:17:26;;;;;;;11.63;6.13;;;;;;;19.14;77.73;94770.13;5117948;27;20201;-74
2023/05/31 05:19:53;;;;;;;14.65;6.63;;;;;;;19.15;77.81;94771.69;5117411;27;20205;-74
2023/05/31 05:22:20;;;;;;;9.75;5.45;;;;;;;19.36;77.13;94776.63;5121153;27;20622;-73
2023/05/31 05:24:47;;;;;;;9.07;5.32;;;;;;;19.65;76.30;94778.44;5117585;27;20263;-74
2023/05/31 05:27:14;;;;;;;9.13;5.28;;;;;;;19.40;76.44;94777.44;5112440;28;20299;-74
2023/05/31 05:29:42;;;;;;;7.60;5.50;;;;;;;19.68;75.76;94783.16;5114740;27;20258;-73
2023/05/31 05:32:09;;;;;;;11.05;6.93;;;;;;;19.83;74.83;94782.09;5123636;27;20217;-73
2023/05/31 05:34:36;;;;;;;10.63;6.82;;;;;;;19.71;75.31;94776.13;5112062;28;20229;-73
2023/05/31 05:37:03;;;;;;;8.25;6.18;;;;;;;19.80;74.58;94780.13;5111769;28;20233;-73
2023/05/31 05:39:30;;;;;;;11.73;6.53;;;;;;;19.61;75.52;94777.63;5114430;27;20661;-73
2023/05/31 05:41:57;;;;;;;10.80;7.07;;;;;;;19.89;74.54;94785.28;5123525;27;20288;-74
2023/05/31 05:44:23;;;;;;;11.50;7.63;;;;;;;20.28;73.34;94780.00;5112153;28;20237;-73
2023/05/31 05:46:52;;;;;;;11.52;6.90;;;;;;;19.99;73.50;94783.75;5112264;28;20691;-73
2023/05/31 05:49:19;;;;;;;13.40;6.72;;;;;;;19.60;75.27;94787.03;5111905;28;20201;-74
2023/05/31 05:51:45;;;;;;;13.93;5.90;;;;;;;19.66;75.48;94785.53;5111751;28;20209;-74
2023/05/31 05:54:13;;;;;;;12.80;7.00;;;;;;;19.75;74.19;94788.72;5114889;27;20733;-73
2023/05/31 05:56:39;;;;;;;12.27;6.85;;;;;;;20.18;73.49;94783.50;5122247;27;20285;-73
2023/05/31 05:59:06;;;;;;;9.35;5.50;;;;;;;20.49;72.16;94782.91;5106650;28;20472;-74
2023/05/31 06:01:33;;;;;;;15.18;5.70;;;;;;;20.23;71.82;94785.88;5112063;28;20198;-75
2023/05/31 06:04:01;;;;;;;9.00;6.70;;;;;;;20.46;71.32;94782.88;5111912;28;20206;-74
2023/05/31 06:06:28;;;;;;;9.75;7.15;;;;;;;20.52;71.38;94782.09;5111904;28;20210;-74
2023/05/31 06:08:55;;;;;;;9.75;6.68;;;;;;;20.44;71.51;94780.50;5111666;28;20286;-74
2023/05/31 06:11:22;;;;;;;11.10;6.53;;;;;;;20.54;71.25;94785.25;5111390;28;20714;-73
2023/05/31 06:13:49;;;;;;;10.90;6.80;;;;;;;20.72;71.26;94779.81;5110931;28;20193;-74
2023/05/31 06:16:16;;;;;;;9.20;6.38;;;;;;;21.07;70.57;94784.63;5111242;28;20242;-74
2023/05/31 06:18:42;;;;;;;9.85;6.82;;;;;;;20.76;69.77;94779.84;5111339;28;20209;-74
2023/05/31 06:21:11;;;;;;;8.60;7.43;;;;;;;20.46;70.21;94783.66;5111493;28;20206;-74
2023/05/31 06:23:37;;;;;;;14.80;7.25;;;;;;;20.20;72.03;94784.69;5111719;28;20201;-74
2023/05/31 06:26:04;;;;;;;11.15;6.72;;;;;;;20.51;71.14;94786.03;5110783;28;20284;-73
2023/05/31 06:28:32;;;;;;;11.30;7.15;;;;;;;20.59;70.83;94789.63;5110407;28;20215;-75
2023/05/31 06:31:00;;;;;;;10.88;6.90;;;;;;;21.09;69.98;94781.47;5110480;28;20560;-74
2023/05/31 06:33:27;;;;;;;10.13;7.28;;;;;;;21.11;69.30;94787.41;5111222;28;20270;-75
2023/05/31 06:35:54;;;;;;;13.48;7.68;;;;;;;20.89;70.86;94783.81;5111662;27;20298;-73
2023/05/31 06:38:22;;;;;;;10.35;7.43;;;;;;;20.79;71.06;94784.56;5123856;27;20262;-73
2023/05/31 06:40:48;;;;;;;15.13;8.15;;;;;;;20.38;71.76;94782.03;5111233;28;20630;-73
2023/05/31 06:43:16;;;;;;;14.60;7.68;;;;;;;20.61;70.54;94790.03;5111061;28;20632;-73
2023/05/31 06:45:43;;;;;;;12.48;7.40;;;;;;;20.45;72.33;94790.34;5110936;28;20284;-73
2023/05/31 06:48:09;;;;;;;12.00;8.07;;;;;;;20.24;71.52;94787.44;5110500;28;20254;-74
2023/05/31 06:50:36;;;;;;;11.93;7.93;;;;;;;20.64;70.89;94788.47;5110855;28;20228;-74
2023/05/31 06:53:03;;;;;;;13.68;6.78;;;;;;;21.01;69.48;94780.69;5110870;28;20259;-75
2023/05/31 06:55:31;;;;;;;9.98;6.28;;;;;;;20.61;70.04;94789.22;5110460;28;20241;-74
2023/05/31 06:57:58;;;;;;;10.27;7.35;;;;;;;21.09;69.25;94782.28;5110794;28;20288;-75
2023/05/31 07:00:25;;;;;;;9.77;6.78;;;;;;;21.59;68.28;94782.38;5106455;28;20201;-75
2023/05/31 07:02:52;;;;;;;8.93;6.93;;;;;;;21.11;68.15;94788.19;5110732;28;20217;-77
2023/05/31 07:05:19;;;;;;;8.55;7.05;;;;;;;21.05;68.29;94786.97;5110377;28;20251;-74
2023/05/31 07:07:46;;;;;;;9.20;6.65;;;;;;;21.21;67.97;94773.66;5110219;28;20210;-74
2023/05/31 07:10:13;;;;;;;12.38;6.85;;;;;;;21.69;67.07;94780.78;5110589;28;20259;-74
2023/05/31 07:12:41;;;;;;;13.05;6.93;;;;;;;21.57;67.14;94788.28;5110330;28;20661;-72
2023/05/31 07:15:09;;;;;;;12.25;6.90;;;;;;;21.74;66.99;94788.63;5110356;28;20255;-74
2023/05/31 07:17:36;;;;;;;13.77;7.13;;;;;;;22.19;64.96;94778.75;5120294;27;20284;-74
2023/05/31 07:20:05;;;;;;;9.15;6.70;;;;;;;22.70;64.26;94784.50;5113706;27;20209;-73
2023/05/31 07:22:32;;;;;;;13.23;6.90;;;;;;;23.12;62.90;94782.72;5110443;28;20202;-73
2023/05/31 07:24:59;;;;;;;11.02;6.85;;;;;;;22.30;65.33;94788.56;5114082;27;20209;-73
2023/05/31 07:27:25;;;;;;;11.95;7.40;;;;;;;21.55;66.36;94793.38;5119415;27;20201;-73
2023/05/31 07:29:53;;;;;;;10.52;6.30;;;;;;;21.69;67.58;94780.78;5110022;28;20270;-73
2023/05/31 07:32:20;;;;;;;11.60;6.72;;;;;;;22.30;65.18;94776.75;5109488;28;20205;-73
2023/05/31 07:34:47;;;;;;;7.32;6.15;;;;;;;22.61;63.55;94786.13;5109055;28;20226;-74
2023/05/31 07:37:14;;;;;;;8.68;5.63;;;;;;;22.66;63.12;94772.69;5109239;28;20209;-73
2023/05/31 07:39:41;;;;;;;6.60;5.18;;;;;;;23.15;61.09;94784.69;5109212;28;20209;-73
2023/05/31 07:42:08;;;;;;;8.85;6.03;;;;;;;23.31;61.04;94779.47;5109174;28;20216;-73
2023/05/31 07:44:35;;;;;;;7.53;5.70;;;;;;;23.65;60.48;94779.63;5109707;28;20209;-74
2023/05/31 07:47:03;;;;;;;10.88;5.70;;;;;;;23.86;60.77;94769.56;5122348;27;20212;-73
2023/05/31 07:49:30;;;;;;;5.95;5.07;;;;;;;23.28;60.01;94774.72;5111058;27;20202;-73
2023/05/31 07:51:57;;;;;;;10.68;5.70;;;;;;;23.57;60.29;94774.56;5109427;28;20209;-74
2023/05/31 07:54:23;;;;;;;8.52;4.90;;;;;;;22.84;61.10;94777.34;5109404;28;20603;-73
2023/05/31 07:56:50;;;;;;;9.50;5.40;;;;;;;22.57;62.14;94775.06;5109428;28;20243;-74
2023/05/31 07:59:17;;;;;;;8.05;5.38;;;;;;;22.93;62.46;94769.44;5111540;27;20201;-73
2023/05/31 08:01:46;;;;;;;8.90;5.38;;;;;;;23.21;60.50;94776.78;5116958;27;20205;-75
2023/05/31 08:04:15;;;;;;;5.70;4.78;;;;;;;23.06;60.15;94772.50;5123473;27;20281;-73
2023/05/31 08:06:42;;;;;;;8.10;5.07;;;;;;;23.21;59.37;94769.25;5109628;28;20210;-74
2023/05/31 08:09:10;;;;;;;10.55;5.40;;;;;;;23.50;59.23;94769.06;5117305;27;20283;-74
2023/05/31 08:11:38;;;;;;;6.65;4.88;;;;;;;24.08;56.22;94760.66;5115077;27;20261;-73
2023/05/31 08:14:05;;;;;;;6.05;4.72;;;;;;;24.41;56.07;94761.13;5101904;28;20199;-73
2023/05/31 08:16:33;;;;;;;6.10;4.57;;;;;;;25.19;54.58;94753.81;5104006;28;20236;-73
2023/05/31 08:19:00;;;;;;;5.75;4.25;;;;;;;26.57;52.12;94745.91;5109558;28;20201;-73
2023/05/31 08:21:29;;;;;;;6.38;4.90;;;;;;;27.21;50.26;94745.34;5109188;28;20205;-73
2023/05/31 08:23:55;;;;;;;8.45;5.18;;;;;;;26.79;51.27;94752.59;5118080;28;20284;-74
2023/05/31 08:26:22;;;;;;;11.20;4.50;;;;;;;27.54;50.07;94751.75;5113968;28;20205;-72
2023/05/31 08:28:50;;;;;;;6.32;5.15;;;;;;;26.79;49.55;94747.03;5109770;28;20205;-72
2023/05/31 08:31:16;;;;;;;8.13;5.30;;;;;;;26.25;52.63;94751.28;5109225;28;20210;-74
2023/05/31 08:33:54;;;;;;;7.43;4.93;;;;;;;26.62;52.31;94751.00;5109635;28;20225;-73
2023/05/31 08:36:21;;;;;;;6.70;5.47;;;;;;;25.79;53.09;94741.78;5109210;28;20221;-75
2023/05/31 08:38:50;;;;;;;7.20;5.15;;;;;;;26.47;52.98;94752.47;5108813;28;20205;-73
2023/05/31 08:41:18;;;;;;;9.45;5.50;;;;;;;26.61;50.55;94746.63;5108310;28;20250;-72
2023/05/31 08:43:46;;;;;;;6.25;5.50;;;;;;;26.49;52.37;94750.06;5109573;28;20209;-73
2023/05/31 08:46:15;;;;;;;9.63;5.85;;;;;;;25.72;53.85;94736.34;5109284;28;20249;-73
2023/05/31 08:48:50;;;;;;;8.85;5.60;;;;;;;25.59;54.49;94743.69;5109185;28;20206;-74
2023/05/31 08:51:17;;;;;;;9.35;5.63;;;;;;;25.68;56.35;94736.44;5109664;28;20201;-73
2023/05/31 08:53:47;;;;;;;7.50;5.25;;;;;;;25.66;53.94;94733.28;5124704;27;20487;-72
2023/05/31 08:56:16;;;;;;;7.80;5.65;;;;;;;26.09;53.82;94733.31;5099641;28;20581;-73
2023/05/31 08:58:43;;;;;;;7.82;5.00;;;;;;;25.72;51.86;94733.56;5108111;28;20202;-73
2023/05/31 09:01:12;;;;;;;6.05;4.80;;;;;;;25.53;52.15;94725.97;5112519;28;20206;-73
2023/05/31 09:03:39;;;;;;;7.43;5.25;;;;;;;24.39;54.98;94730.28;5112925;28;20670;-73
2023/05/31 09:06:06;;;;;;;7.55;4.75;;;;;;;24.69;55.34;94721.22;5112761;28;20255;-73
2023/05/31 09:08:33;;;;;;;9.95;5.25;;;;;;;24.32;54.99;94730.38;5113078;28;20228;-71
2023/05/31 09:11:01;;;;;;;9.48;5.40;;;;;;;23.67;56.40;94729.41;5112718;28;20276;-73
2023/05/31 09:13:29;;;;;;;6.65;4.85;;;;;;;23.98;54.64;94711.72;5112807;28;20209;-72
2023/05/31 09:15:58;;;;;;;9.90;5.45;;;;;;;23.67;57.41;94718.34;5112746;28;20226;-73
2023/05/31 09:18:29;;;;;;;6.55;5.70;;;;;;;23.42;59.86;94723.28;5112766;28;20213;-73
2023/05/31 09:20:57;;;;;;;7.30;5.25;;;;;;;23.58;59.99;94720.81;5113224;28;20205;-74
2023/05/31 09:23:24;;;;;;;10.35;5.55;;;;;;;23.61;59.98;94725.53;5112739;28;20201;-75
2023/05/31 09:25:52;;;;;;;7.32;5.47;;;;;;;23.34;60.99;94723.34;5112669;28;20210;-74
2023/05/31 09:28:20;;;;;;;7.80;5.05;;;;;;;23.97;59.01;94715.69;5112526;28;20205;-74
2023/05/31 09:31:03;;;;;;;11.90;5.90;;;;;;;23.46;59.75;94724.03;5112801;28;20209;-77
2023/05/31 09:33:38;;;;;;;9.50;5.78;;;;;;;23.28;61.28;94713.13;5099763;28;20581;-73
2023/05/31 09:36:05;;;;;;;6.05;4.85;;;;;;;22.56;61.42;94723.78;5112377;28;20718;-72
2023/05/31 09:38:33;;;;;;;11.25;5.57;;;;;;;22.63;61.17;94714.69;5112746;28;20198;-74
2023/05/31 09:41:12;;;;;;;8.77;5.40;;;;;;;22.37;62.87;94721.53;5112486;28;20576;-73
2023/05/31 09:43:40;;;;;;;7.85;5.80;;;;;;;22.35;63.58;94718.38;5112093;28;20630;-74
2023/05/31 09:46:14;;;;;;;8.27;5.80;;;;;;;22.45;63.93;94722.28;5125734;27;20237;-74
2023/05/31 09:48:41;;;;;;;11.50;6.15;;;;;;;22.32;64.21;94719.97;5112174;28;20638;-73
2023/05/31 09:51:09;;;;;;;9.02;6.10;;;;;;;21.88;66.73;94714.16;5112263;28;20558;-72
2023/05/31 09:53:43;;;;;;;7.80;5.43;;;;;;;21.02;67.21;94713.41;5111735;28;20575;-73
2023/05/31 09:56:11;;;;;;;6.82;6.00;;;;;;;21.21;69.48;94707.53;5111252;28;20748;-72
2023/05/31 09:58:37;;;;;;;6.22;5.10;;;;;;;20.85;69.48;94701.19;5106479;28;20553;-72
2023/05/31 10:01:05;;;;;;;6.57;4.93;;;;;;;21.25;70.75;94702.81;5112149;28;20250;-73
2023/05/31 10:03:35;;;;;;;10.10;6.32;;;;;;;21.70;68.71;94692.16;5111285;28;20669;-73
2023/05/31 10:06:02;;;;;;;10.45;6.75;;;;;;;21.85;68.41;94696.44;5111642;28;20218;-75
2023/05/31 10:08:31;;;;;;;6.30;5.70;;;;;;;21.89;67.46;94702.72;5111492;28;20271;-74
2023/05/31 10:10:59;;;;;;;8.02;6.25;;;;;;;22.28;66.76;94697.09;5120439;27;20261;-76
2023/05/31 10:13:28;;;;;;;7.07;5.50;;;;;;;23.00;62.97;94703.06;5116222;27;20202;-76
2023/05/31 10:15:56;;;;;;;6.32;5.18;;;;;;;23.08;62.48;94685.25;5111803;28;20317;-74
2023/05/31 10:18:28;;;;;;;5.30;4.80;;;;;;;23.03;60.70;94686.47;5111613;28;20202;-73
2023/05/31 10:21:04;;;;;;;6.82;4.75;;;;;;;22.48;61.91;94700.19;5111397;28;20202;-72
2023/05/31 10:23:34;;;;;;;6.75;4.97;;;;;;;22.57;62.87;94696.97;5125369;27;20197;-73
2023/05/31 10:26:09;;;;;;;9.20;5.57;;;;;;;22.60;63.99;94694.19;5111534;28;20258;-72
2023/05/31 10:28:40;;;;;;;7.63;5.80;;;;;;;22.38;64.51;94681.69;5111230;28;20824;-73
2023/05/31 10:31:11;;;;;;;9.15;5.47;;;;;;;22.55;65.02;94689.09;5110887;28;20202;-72
2023/05/31 10:33:40;;;;;;;8.82;5.13;;;;;;;22.32;64.98;94677.78;5111346;28;20260;-73
2023/05/31 10:36:10;;;;;;;5.90;4.97;;;;;;;21.91;65.35;94678.28;5113976;27;20564;-73
2023/05/31 10:38:41;;;;;;;5.93;3.95;;;;;;;21.53;65.46;94690.97;5122134;27;20292;-74
2023/05/31 10:41:12;;;;;;;6.45;4.03;;;;;;;21.29;65.76;94686.28;5111145;28;20251;-73
2023/05/31 10:43:45;;;;;;;7.78;4.97;;;;;;;20.84;68.99;94687.81;5122280;27;20197;-74
2023/05/31 10:46:23;;;;;;;5.75;4.40;;;;;;;20.61;68.97;94693.66;5112491;27;20262;-73
2023/05/31 10:48:53;;;;;;;6.70;5.18;;;;;;;20.90;70.61;94684.28;5110675;28;20246;-74
2023/05/31 10:51:38;;;;;;;9.05;4.95;;;;;;;21.32;66.21;94681.97;5107418;28;20193;-73
2023/05/31 10:54:05;;;;;;;6.38;4.75;;;;;;;21.40;67.43;94680.75;5110755;28;20225;-72
2023/05/31 10:56:32;;;;;;;8.48;5.30;;;;;;;21.11;68.12;94672.47;5109341;28;20596;-72
2023/05/31 10:58:59;;;;;;;6.30;4.22;;;;;;;21.32;66.40;94679.19;5105677;28;20255;-75
2023/05/31 11:01:29;;;;;;;6.82;5.03;;;;;;;21.63;66.11;94673.63;5109551;28;20201;-74
2023/05/31 11:03:57;;;;;;;9.15;5.30;;;;;;;21.95;65.16;94679.06;5114451;27;20220;-73
2023/05/31 11:06:27;;;;;;;8.32;4.65;;;;;;;22.58;64.23;94671.72;5119860;27;20205;-74
2023/05/31 11:08:58;;;;;;;5.70;4.78;;;;;;;23.17;61.17;94663.47;5110812;28;20217;-73
2023/05/31 11:11:46;;;;;;;6.78;4.72;;;;;;;23.69;60.95;94655.09;5110170;28;20293;-73
2023/05/31 11:14:29;;;;;;;10.38;5.40;;;;;;;23.73;61.03;94647.56;5110015;28;20205;-74
2023/05/31 11:17:15;;;;;;;6.90;4.53;;;;;;;23.87;60.22;94654.94;5106497;28;20237;-74
2023/05/31 11:19:43;;;;;;;10.07;5.10;;;;;;;24.09;60.21;94651.50;5109406;28;20213;-73
2023/05/31 11:22:15;;;;;;;5.85;4.97;;;;;;;24.18;58.96;94653.00;5110405;28;20237;-75
2023/05/31 11:24:50;;;;;;;6.25;4.55;;;;;;;24.68;57.63;94642.84;5110381;28;20197;-74
2023/05/31 11:27:18;;;;;;;6.93;4.20;;;;;;;25.12;57.41;94641.03;5109931;28;20292;-74
2023/05/31 11:29:59;;;;;;;7.10;3.95;;;;;;;24.94;54.05;94634.97;5109931;28;20198;-72
2023/05/31 11:33:08;;;;;;;6.90;4.72;;;;;;;23.90;57.45;94638.28;5109671;28;20635;-71
2023/05/31 11:35:35;;;;;;;6.40;4.32;;;;;;;23.81;57.78;94640.75;5100496;28;20672;-72
2023/05/31 11:38:07;;;;;;;7.97;4.30;;;;;;;23.64;57.68;94636.22;5110003;28;20237;-71